sensor_id;sensor_type;location;lat;lon;timestamp;temperature;humidity
6841;DHT22;3458;53.678;14.080;2023-05-27T00:00:17;13.20;84.50
6841;DHT22;3458;53.678;14.080;2023-05-27T00:02:43;13.20;84.70
6841;DHT22;3458;53.678;14.080;2023-05-27T00:05:08;13.10;84.70
6841;DHT22;3458;53.678;14.080;2023-05-27T00:07:34;13.20;84.70
6841;DHT22;3458;53.678;14.080;2023-05-27T00:10:00;13.10;84.90
6841;DHT22;3458;53.678;14.080;2023-05-27T00:12:25;13.10;85.20
6841;DHT22;3458;53.678;14.080;2023-05-27T00:14:51;13.00;85.20
6841;DHT22;3458;53.678;14.080;2023-05-27T00:17:16;13.00;85.40
6841;DHT22;3458;53.678;14.080;2023-05-27T00:19:43;13.00;85.80
6841;DHT22;3458;53.678;14.080;2023-05-27T00:22:10;12.90;86.00
6841;DHT22;3458;53.678;14.080;2023-05-27T00:24:36;12.90;86.30
6841;DHT22;3458;53.678;14.080;2023-05-27T00:27:05;12.90;86.50
6841;DHT22;3458;53.678;14.080;2023-05-27T00:29:30;12.90;86.80
6841;DHT22;3458;53.678;14.080;2023-05-27T00:31:56;12.80;87.10
6841;DHT22;3458;53.678;14.080;2023-05-27T00:34:21;12.80;87.70
6841;DHT22;3458;53.678;14.080;2023-05-27T00:36:47;12.80;88.00
6841;DHT22;3458;53.678;14.080;2023-05-27T00:39:12;12.70;88.10
6841;DHT22;3458;53.678;14.080;2023-05-27T00:41:44;12.70;88.60
6841;DHT22;3458;53.678;14.080;2023-05-27T00:44:12;12.70;88.90
6841;DHT22;3458;53.678;14.080;2023-05-27T00:46:37;12.70;88.90
6841;DHT22;3458;53.678;14.080;2023-05-27T00:49:03;12.60;88.90
6841;DHT22;3458;53.678;14.080;2023-05-27T00:51:28;12.60;88.90
6841;DHT22;3458;53.678;14.080;2023-05-27T00:53:55;12.50;89.10
6841;DHT22;3458;53.678;14.080;2023-05-27T00:56:20;12.50;89.30
6841;DHT22;3458;53.678;14.080;2023-05-27T00:58:46;12.50;89.30
6841;DHT22;3458;53.678;14.080;2023-05-27T01:01:12;12.50;89.40
6841;DHT22;3458;53.678;14.080;2023-05-27T01:03:38;12.50;89.60
6841;DHT22;3458;53.678;14.080;2023-05-27T01:06:32;12.40;90.00
6841;DHT22;3458;53.678;14.080;2023-05-27T01:11:46;12.40;90.70
6841;DHT22;3458;53.678;14.080;2023-05-27T01:14:14;12.30;90.70
6841;DHT22;3458;53.678;14.080;2023-05-27T01:16:44;12.30;90.90
6841;DHT22;3458;53.678;14.080;2023-05-27T01:19:14;12.20;90.90
6841;DHT22;3458;53.678;14.080;2023-05-27T01:21:47;12.20;91.20
6841;DHT22;3458;53.678;14.080;2023-05-27T01:24:13;12.20;91.30
6841;DHT22;3458;53.678;14.080;2023-05-27T01:26:39;12.20;91.40
6841;DHT22;3458;53.678;14.080;2023-05-27T01:29:05;12.20;91.50
6841;DHT22;3458;53.678;14.080;2023-05-27T01:31:35;12.20;91.60
6841;DHT22;3458;53.678;14.080;2023-05-27T01:34:08;12.20;91.70
6841;DHT22;3458;53.678;14.080;2023-05-27T01:36:40;12.10;91.80
6841;DHT22;3458;53.678;14.080;2023-05-27T01:39:09;12.10;91.90
6841;DHT22;3458;53.678;14.080;2023-05-27T01:41:37;12.10;92.20
6841;DHT22;3458;53.678;14.080;2023-05-27T01:44:03;12.10;92.20
6841;DHT22;3458;53.678;14.080;2023-05-27T01:46:29;12.00;92.30
6841;DHT22;3458;53.678;14.080;2023-05-27T01:48:55;12.00;92.40
6841;DHT22;3458;53.678;14.080;2023-05-27T01:51:20;12.00;92.60
6841;DHT22;3458;53.678;14.080;2023-05-27T01:53:46;11.90;92.70
6841;DHT22;3458;53.678;14.080;2023-05-27T01:56:11;12.00;93.00
6841;DHT22;3458;53.678;14.080;2023-05-27T01:58:37;11.90;93.10
6841;DHT22;3458;53.678;14.080;2023-05-27T02:01:02;11.90;93.10
6841;DHT22;3458;53.678;14.080;2023-05-27T02:03:28;11.90;93.40
6841;DHT22;3458;53.678;14.080;2023-05-27T02:05:53;11.90;93.50
6841;DHT22;3458;53.678;14.080;2023-05-27T02:08:19;11.90;93.60
6841;DHT22;3458;53.678;14.080;2023-05-27T02:10:45;11.80;93.60
6841;DHT22;3458;53.678;14.080;2023-05-27T02:13:10;11.80;93.60
6841;DHT22;3458;53.678;14.080;2023-05-27T02:15:36;11.80;93.80
6841;DHT22;3458;53.678;14.080;2023-05-27T02:18:01;11.80;93.90
6841;DHT22;3458;53.678;14.080;2023-05-27T02:20:27;11.70;93.90
6841;DHT22;3458;53.678;14.080;2023-05-27T02:22:52;11.70;94.30
6841;DHT22;3458;53.678;14.080;2023-05-27T02:25:18;11.70;94.10
6841;DHT22;3458;53.678;14.080;2023-05-27T02:27:44;11.60;94.10
6841;DHT22;3458;53.678;14.080;2023-05-27T02:30:14;11.70;94.40
6841;DHT22;3458;53.678;14.080;2023-05-27T02:32:40;11.60;94.50
6841;DHT22;3458;53.678;14.080;2023-05-27T02:35:06;11.60;94.60
6841;DHT22;3458;53.678;14.080;2023-05-27T02:37:32;11.60;94.70
6841;DHT22;3458;53.678;14.080;2023-05-27T02:39:58;11.50;94.70
6841;DHT22;3458;53.678;14.080;2023-05-27T02:42:23;11.50;94.70
6841;DHT22;3458;53.678;14.080;2023-05-27T02:44:49;11.50;94.90
6841;DHT22;3458;53.678;14.080;2023-05-27T02:47:14;11.50;95.20
6841;DHT22;3458;53.678;14.080;2023-05-27T02:49:40;11.50;95.30
6841;DHT22;3458;53.678;14.080;2023-05-27T02:52:05;11.40;95.40
6841;DHT22;3458;53.678;14.080;2023-05-27T02:54:31;11.40;95.50
6841;DHT22;3458;53.678;14.080;2023-05-27T02:56:56;11.40;95.70
6841;DHT22;3458;53.678;14.080;2023-05-27T02:59:22;11.40;95.80
6841;DHT22;3458;53.678;14.080;2023-05-27T03:01:47;11.40;95.90
6841;DHT22;3458;53.678;14.080;2023-05-27T03:04:13;11.40;96.20
6841;DHT22;3458;53.678;14.080;2023-05-27T03:06:38;11.40;96.50
6841;DHT22;3458;53.678;14.080;2023-05-27T03:09:05;11.40;96.70
6841;DHT22;3458;53.678;14.080;2023-05-27T03:11:32;11.40;96.80
6841;DHT22;3458;53.678;14.080;2023-05-27T03:13:58;11.40;97.20
6841;DHT22;3458;53.678;14.080;2023-05-27T03:16:23;11.40;97.30
6841;DHT22;3458;53.678;14.080;2023-05-27T03:18:50;11.30;97.50
6841;DHT22;3458;53.678;14.080;2023-05-27T03:21:15;11.30;97.50
6841;DHT22;3458;53.678;14.080;2023-05-27T03:23:41;11.30;97.90
6841;DHT22;3458;53.678;14.080;2023-05-27T03:26:06;11.30;98.10
6841;DHT22;3458;53.678;14.080;2023-05-27T03:28:32;11.30;98.20
6841;DHT22;3458;53.678;14.080;2023-05-27T03:30:57;11.30;98.40
6841;DHT22;3458;53.678;14.080;2023-05-27T03:33:23;11.20;98.80
6841;DHT22;3458;53.678;14.080;2023-05-27T03:35:49;11.20;98.90
6841;DHT22;3458;53.678;14.080;2023-05-27T03:38:14;11.30;99.30
6841;DHT22;3458;53.678;14.080;2023-05-27T03:40:40;11.20;99.50
6841;DHT22;3458;53.678;14.080;2023-05-27T03:43:06;11.20;99.60
6841;DHT22;3458;53.678;14.080;2023-05-27T03:45:31;11.20;99.90
6841;DHT22;3458;53.678;14.080;2023-05-27T03:47:57;11.20;99.90
6841;DHT22;3458;53.678;14.080;2023-05-27T03:50:22;11.20;99.90
6841;DHT22;3458;53.678;14.080;2023-05-27T03:52:48;11.20;99.90
6841;DHT22;3458;53.678;14.080;2023-05-27T03:55:14;11.20;99.90
6841;DHT22;3458;53.678;14.080;2023-05-27T03:57:40;11.20;99.90
6841;DHT22;3458;53.678;14.080;2023-05-27T04:00:06;11.20;99.90
6841;DHT22;3458;53.678;14.080;2023-05-27T04:02:33;11.20;99.90
6841;DHT22;3458;53.678;14.080;2023-05-27T04:04:58;11.20;99.90
6841;DHT22;3458;53.678;14.080;2023-05-27T04:07:25;11.20;99.90
6841;DHT22;3458;53.678;14.080;2023-05-27T04:09:52;11.20;99.90
6841;DHT22;3458;53.678;14.080;2023-05-27T04:12:18;11.20;99.90
6841;DHT22;3458;53.678;14.080;2023-05-27T04:14:43;11.20;99.90
6841;DHT22;3458;53.678;14.080;2023-05-27T04:17:09;11.20;99.90
6841;DHT22;3458;53.678;14.080;2023-05-27T04:19:34;11.20;99.90
6841;DHT22;3458;53.678;14.080;2023-05-27T04:22:00;11.20;99.90
6841;DHT22;3458;53.678;14.080;2023-05-27T04:24:26;11.20;99.90
6841;DHT22;3458;53.678;14.080;2023-05-27T04:26:51;11.30;99.90
6841;DHT22;3458;53.678;14.080;2023-05-27T04:29:17;11.30;99.90
6841;DHT22;3458;53.678;14.080;2023-05-27T04:31:42;11.30;99.90
6841;DHT22;3458;53.678;14.080;2023-05-27T04:34:08;11.30;99.90
6841;DHT22;3458;53.678;14.080;2023-05-27T04:36:34;11.30;99.90
6841;DHT22;3458;53.678;14.080;2023-05-27T04:39:00;11.30;99.90
6841;DHT22;3458;53.678;14.080;2023-05-27T04:41:27;11.30;99.90
6841;DHT22;3458;53.678;14.080;2023-05-27T04:43:54;11.40;99.90
6841;DHT22;3458;53.678;14.080;2023-05-27T04:46:19;11.40;99.90
6841;DHT22;3458;53.678;14.080;2023-05-27T04:48:46;11.40;99.90
6841;DHT22;3458;53.678;14.080;2023-05-27T04:51:11;11.40;99.90
6841;DHT22;3458;53.678;14.080;2023-05-27T04:53:41;11.50;99.90
6841;DHT22;3458;53.678;14.080;2023-05-27T04:56:07;11.50;99.90
6841;DHT22;3458;53.678;14.080;2023-05-27T04:58:34;11.50;99.90
6841;DHT22;3458;53.678;14.080;2023-05-27T05:00:59;11.50;99.90
6841;DHT22;3458;53.678;14.080;2023-05-27T05:03:25;11.50;99.90
6841;DHT22;3458;53.678;14.080;2023-05-27T05:06:05;11.50;99.90
6841;DHT22;3458;53.678;14.080;2023-05-27T05:08:31;11.50;99.90
6841;DHT22;3458;53.678;14.080;2023-05-27T05:10:57;11.50;99.90
6841;DHT22;3458;53.678;14.080;2023-05-27T05:13:22;11.60;99.90
6841;DHT22;3458;53.678;14.080;2023-05-27T05:15:48;11.70;99.90
6841;DHT22;3458;53.678;14.080;2023-05-27T05:18:13;11.70;99.90
6841;DHT22;3458;53.678;14.080;2023-05-27T05:20:39;11.70;99.90
6841;DHT22;3458;53.678;14.080;2023-05-27T05:23:06;11.80;99.90
6841;DHT22;3458;53.678;14.080;2023-05-27T05:25:32;11.80;99.90
6841;DHT22;3458;53.678;14.080;2023-05-27T05:28:05;11.80;99.90
6841;DHT22;3458;53.678;14.080;2023-05-27T05:30:31;11.90;99.90
6841;DHT22;3458;53.678;14.080;2023-05-27T05:32:57;11.90;99.90
6841;DHT22;3458;53.678;14.080;2023-05-27T05:35:23;12.00;99.90
6841;DHT22;3458;53.678;14.080;2023-05-27T05:37:48;12.00;99.90
6841;DHT22;3458;53.678;14.080;2023-05-27T05:40:14;12.10;99.90
6841;DHT22;3458;53.678;14.080;2023-05-27T05:42:40;12.10;99.90
6841;DHT22;3458;53.678;14.080;2023-05-27T05:45:06;12.10;99.90
6841;DHT22;3458;53.678;14.080;2023-05-27T05:47:32;12.10;99.90
6841;DHT22;3458;53.678;14.080;2023-05-27T05:49:57;12.20;99.90
6841;DHT22;3458;53.678;14.080;2023-05-27T05:52:23;12.30;99.90
6841;DHT22;3458;53.678;14.080;2023-05-27T05:54:48;12.30;99.90
6841;DHT22;3458;53.678;14.080;2023-05-27T05:57:14;12.40;99.90
6841;DHT22;3458;53.678;14.080;2023-05-27T05:59:39;12.50;99.90
6841;DHT22;3458;53.678;14.080;2023-05-27T06:02:05;12.50;99.90
6841;DHT22;3458;53.678;14.080;2023-05-27T06:04:31;12.60;99.90
6841;DHT22;3458;53.678;14.080;2023-05-27T06:06:57;12.70;99.90
6841;DHT22;3458;53.678;14.080;2023-05-27T06:09:23;12.70;99.90
6841;DHT22;3458;53.678;14.080;2023-05-27T06:11:50;12.80;99.90
6841;DHT22;3458;53.678;14.080;2023-05-27T06:14:16;12.80;99.90
6841;DHT22;3458;53.678;14.080;2023-05-27T06:16:42;12.90;99.90
6841;DHT22;3458;53.678;14.080;2023-05-27T06:19:08;12.90;99.90
6841;DHT22;3458;53.678;14.080;2023-05-27T06:21:34;12.90;99.90
6841;DHT22;3458;53.678;14.080;2023-05-27T06:23:59;13.00;99.90
6841;DHT22;3458;53.678;14.080;2023-05-27T06:26:25;13.10;99.90
6841;DHT22;3458;53.678;14.080;2023-05-27T06:28:52;13.10;99.90
6841;DHT22;3458;53.678;14.080;2023-05-27T06:31:18;13.20;99.90
6841;DHT22;3458;53.678;14.080;2023-05-27T06:33:43;13.20;99.90
6841;DHT22;3458;53.678;14.080;2023-05-27T06:36:09;13.20;99.90
6841;DHT22;3458;53.678;14.080;2023-05-27T06:38:35;13.30;99.90
6841;DHT22;3458;53.678;14.080;2023-05-27T06:41:00;13.40;99.90
6841;DHT22;3458;53.678;14.080;2023-05-27T06:43:26;13.40;99.90
6841;DHT22;3458;53.678;14.080;2023-05-27T06:45:51;13.40;99.90
6841;DHT22;3458;53.678;14.080;2023-05-27T06:48:17;13.50;99.90
6841;DHT22;3458;53.678;14.080;2023-05-27T06:50:42;13.50;99.90
6841;DHT22;3458;53.678;14.080;2023-05-27T06:53:08;13.60;99.90
6841;DHT22;3458;53.678;14.080;2023-05-27T06:55:33;13.60;99.90
6841;DHT22;3458;53.678;14.080;2023-05-27T06:57:59;13.60;99.90
6841;DHT22;3458;53.678;14.080;2023-05-27T07:00:24;13.70;99.90
6841;DHT22;3458;53.678;14.080;2023-05-27T07:02:51;13.70;99.90
6841;DHT22;3458;53.678;14.080;2023-05-27T07:05:16;13.80;99.90
6841;DHT22;3458;53.678;14.080;2023-05-27T07:07:43;13.80;99.90
6841;DHT22;3458;53.678;14.080;2023-05-27T07:10:09;13.90;99.90
6841;DHT22;3458;53.678;14.080;2023-05-27T07:12:35;13.90;99.90
6841;DHT22;3458;53.678;14.080;2023-05-27T07:15:01;13.90;99.90
6841;DHT22;3458;53.678;14.080;2023-05-27T07:17:26;14.00;99.90
6841;DHT22;3458;53.678;14.080;2023-05-27T07:19:52;14.00;99.90
6841;DHT22;3458;53.678;14.080;2023-05-27T07:22:17;14.10;99.90
6841;DHT22;3458;53.678;14.080;2023-05-27T07:24:43;14.10;99.90
6841;DHT22;3458;53.678;14.080;2023-05-27T07:27:09;14.20;99.90
6841;DHT22;3458;53.678;14.080;2023-05-27T07:29:34;14.20;99.90
6841;DHT22;3458;53.678;14.080;2023-05-27T07:32:00;14.30;99.90
6841;DHT22;3458;53.678;14.080;2023-05-27T07:34:25;14.30;99.90
6841;DHT22;3458;53.678;14.080;2023-05-27T07:36:51;14.40;99.90
6841;DHT22;3458;53.678;14.080;2023-05-27T07:39:16;14.40;99.90
6841;DHT22;3458;53.678;14.080;2023-05-27T07:41:42;14.50;99.90
6841;DHT22;3458;53.678;14.080;2023-05-27T07:44:07;14.50;99.90
6841;DHT22;3458;53.678;14.080;2023-05-27T07:46:33;14.60;99.90
6841;DHT22;3458;53.678;14.080;2023-05-27T07:48:59;14.60;99.90
6841;DHT22;3458;53.678;14.080;2023-05-27T07:51:25;14.70;99.90
6841;DHT22;3458;53.678;14.080;2023-05-27T07:53:50;14.80;99.90
6841;DHT22;3458;53.678;14.080;2023-05-27T07:56:16;14.80;99.90
6841;DHT22;3458;53.678;14.080;2023-05-27T07:58:41;14.80;99.90
6841;DHT22;3458;53.678;14.080;2023-05-27T08:01:07;14.90;99.90
6841;DHT22;3458;53.678;14.080;2023-05-27T08:03:32;15.00;99.90
6841;DHT22;3458;53.678;14.080;2023-05-27T08:05:58;15.00;99.90
6841;DHT22;3458;53.678;14.080;2023-05-27T08:08:23;15.10;99.90
6841;DHT22;3458;53.678;14.080;2023-05-27T08:10:49;15.10;99.90
6841;DHT22;3458;53.678;14.080;2023-05-27T08:13:14;15.20;99.90
6841;DHT22;3458;53.678;14.080;2023-05-27T08:15:40;15.30;99.90
6841;DHT22;3458;53.678;14.080;2023-05-27T08:18:05;15.40;99.90
6841;DHT22;3458;53.678;14.080;2023-05-27T08:20:31;15.40;99.90
6841;DHT22;3458;53.678;14.080;2023-05-27T08:22:56;15.40;99.90
6841;DHT22;3458;53.678;14.080;2023-05-27T08:25:22;15.50;99.90
6841;DHT22;3458;53.678;14.080;2023-05-27T08:27:54;15.50;99.90
6841;DHT22;3458;53.678;14.080;2023-05-27T08:30:27;15.50;99.90
6841;DHT22;3458;53.678;14.080;2023-05-27T08:32:54;15.70;99.90
6841;DHT22;3458;53.678;14.080;2023-05-27T08:35:20;15.70;99.90
6841;DHT22;3458;53.678;14.080;2023-05-27T08:37:45;15.70;99.90
6841;DHT22;3458;53.678;14.080;2023-05-27T08:40:13;15.70;99.90
6841;DHT22;3458;53.678;14.080;2023-05-27T08:42:40;15.80;99.90
6841;DHT22;3458;53.678;14.080;2023-05-27T08:45:06;15.80;99.90
6841;DHT22;3458;53.678;14.080;2023-05-27T08:47:32;15.80;99.90
6841;DHT22;3458;53.678;14.080;2023-05-27T08:49:58;15.90;99.90
6841;DHT22;3458;53.678;14.080;2023-05-27T08:52:24;16.00;99.90
6841;DHT22;3458;53.678;14.080;2023-05-27T08:54:52;15.90;99.90
6841;DHT22;3458;53.678;14.080;2023-05-27T08:57:20;15.90;99.90
6841;DHT22;3458;53.678;14.080;2023-05-27T08:59:50;16.00;99.90
6841;DHT22;3458;53.678;14.080;2023-05-27T09:02:17;15.90;99.90
6841;DHT22;3458;53.678;14.080;2023-05-27T09:04:45;15.90;99.90
6841;DHT22;3458;53.678;14.080;2023-05-27T09:07:11;15.80;99.90
6841;DHT22;3458;53.678;14.080;2023-05-27T09:09:38;15.90;99.90
6841;DHT22;3458;53.678;14.080;2023-05-27T09:12:04;15.90;99.90
6841;DHT22;3458;53.678;14.080;2023-05-27T09:14:31;16.00;99.90
6841;DHT22;3458;53.678;14.080;2023-05-27T09:17:04;16.00;99.90
6841;DHT22;3458;53.678;14.080;2023-05-27T09:19:30;16.10;99.90
6841;DHT22;3458;53.678;14.080;2023-05-27T09:21:55;16.10;99.90
6841;DHT22;3458;53.678;14.080;2023-05-27T09:24:24;16.20;99.90
6841;DHT22;3458;53.678;14.080;2023-05-27T09:26:51;16.30;99.90
6841;DHT22;3458;53.678;14.080;2023-05-27T09:29:18;16.40;99.90
6841;DHT22;3458;53.678;14.080;2023-05-27T09:31:44;16.50;99.90
6841;DHT22;3458;53.678;14.080;2023-05-27T09:36:42;16.70;99.90
6841;DHT22;3458;53.678;14.080;2023-05-27T09:39:08;16.70;99.90
6841;DHT22;3458;53.678;14.080;2023-05-27T09:41:34;16.80;99.90
6841;DHT22;3458;53.678;14.080;2023-05-27T09:44:01;16.80;99.90
6841;DHT22;3458;53.678;14.080;2023-05-27T09:46:30;16.90;99.60
6841;DHT22;3458;53.678;14.080;2023-05-27T09:48:58;17.00;98.70
6841;DHT22;3458;53.678;14.080;2023-05-27T09:51:26;17.00;97.70
6841;DHT22;3458;53.678;14.080;2023-05-27T09:53:53;16.90;98.10
6841;DHT22;3458;53.678;14.080;2023-05-27T09:56:20;17.00;97.50
6841;DHT22;3458;53.678;14.080;2023-05-27T09:58:46;17.10;97.70
6841;DHT22;3458;53.678;14.080;2023-05-27T10:01:12;17.20;98.60
6841;DHT22;3458;53.678;14.080;2023-05-27T10:03:38;17.30;98.50
6841;DHT22;3458;53.678;14.080;2023-05-27T10:06:08;17.40;98.50
6841;DHT22;3458;53.678;14.080;2023-05-27T10:08:34;17.50;97.30
6841;DHT22;3458;53.678;14.080;2023-05-27T10:11:00;17.50;97.10
6841;DHT22;3458;53.678;14.080;2023-05-27T10:13:27;17.60;95.50
6841;DHT22;3458;53.678;14.080;2023-05-27T10:15:52;17.60;95.90
6841;DHT22;3458;53.678;14.080;2023-05-27T10:18:26;17.60;95.60
6841;DHT22;3458;53.678;14.080;2023-05-27T10:20:53;17.80;96.80
6841;DHT22;3458;53.678;14.080;2023-05-27T10:23:25;17.90;95.20
6841;DHT22;3458;53.678;14.080;2023-05-27T10:26:05;17.90;93.70
6841;DHT22;3458;53.678;14.080;2023-05-27T10:28:36;18.00;93.70
6841;DHT22;3458;53.678;14.080;2023-05-27T10:33:31;18.20;89.90
6841;DHT22;3458;53.678;14.080;2023-05-27T10:38:38;18.00;82.80
6841;DHT22;3458;53.678;14.080;2023-05-27T10:41:05;18.00;84.30
6841;DHT22;3458;53.678;14.080;2023-05-27T10:43:32;18.10;85.80
6841;DHT22;3458;53.678;14.080;2023-05-27T10:46:07;18.10;83.30
6841;DHT22;3458;53.678;14.080;2023-05-27T10:48:34;18.10;80.30
6841;DHT22;3458;53.678;14.080;2023-05-27T10:51:00;18.10;79.70
6841;DHT22;3458;53.678;14.080;2023-05-27T10:53:27;18.20;77.40
6841;DHT22;3458;53.678;14.080;2023-05-27T10:55:53;18.20;79.60
6841;DHT22;3458;53.678;14.080;2023-05-27T10:58:20;18.40;78.70
6841;DHT22;3458;53.678;14.080;2023-05-27T11:00:55;18.50;80.50
6841;DHT22;3458;53.678;14.080;2023-05-27T11:03:25;18.60;79.30
6841;DHT22;3458;53.678;14.080;2023-05-27T11:06:05;18.70;75.30
6841;DHT22;3458;53.678;14.080;2023-05-27T11:08:32;18.60;75.60
6841;DHT22;3458;53.678;14.080;2023-05-27T11:11:11;18.70;76.80
6841;DHT22;3458;53.678;14.080;2023-05-27T11:13:47;19.00;79.90
6841;DHT22;3458;53.678;14.080;2023-05-27T11:16:13;19.20;76.40
6841;DHT22;3458;53.678;14.080;2023-05-27T11:18:41;19.20;73.50
6841;DHT22;3458;53.678;14.080;2023-05-27T11:21:08;19.20;72.90
6841;DHT22;3458;53.678;14.080;2023-05-27T11:23:38;19.40;75.10
6841;DHT22;3458;53.678;14.080;2023-05-27T11:26:19;19.60;72.30
6841;DHT22;3458;53.678;14.080;2023-05-27T11:29:11;19.60;74.00
6841;DHT22;3458;53.678;14.080;2023-05-27T11:31:37;19.70;73.30
6841;DHT22;3458;53.678;14.080;2023-05-27T11:34:14;19.80;71.10
6841;DHT22;3458;53.678;14.080;2023-05-27T11:36:42;20.10;70.70
6841;DHT22;3458;53.678;14.080;2023-05-27T11:39:13;20.30;66.70
6841;DHT22;3458;53.678;14.080;2023-05-27T11:44:13;20.30;60.00
6841;DHT22;3458;53.678;14.080;2023-05-27T11:46:42;20.30;59.60
6841;DHT22;3458;53.678;14.080;2023-05-27T11:49:10;20.20;58.40
6841;DHT22;3458;53.678;14.080;2023-05-27T11:51:46;20.40;57.80
6841;DHT22;3458;53.678;14.080;2023-05-27T11:54:30;20.60;58.10
6841;DHT22;3458;53.678;14.080;2023-05-27T11:56:57;21.10;56.80
6841;DHT22;3458;53.678;14.080;2023-05-27T11:59:25;21.60;56.10
6841;DHT22;3458;53.678;14.080;2023-05-27T12:01:51;22.30;55.20
6841;DHT22;3458;53.678;14.080;2023-05-27T12:04:19;23.20;55.00
6841;DHT22;3458;53.678;14.080;2023-05-27T12:06:45;24.30;50.20
6841;DHT22;3458;53.678;14.080;2023-05-27T12:09:11;25.40;48.70
6841;DHT22;3458;53.678;14.080;2023-05-27T12:11:37;26.60;44.20
6841;DHT22;3458;53.678;14.080;2023-05-27T12:14:03;27.40;40.50
6841;DHT22;3458;53.678;14.080;2023-05-27T12:16:29;27.90;37.80
6841;DHT22;3458;53.678;14.080;2023-05-27T12:18:55;28.20;35.60
6841;DHT22;3458;53.678;14.080;2023-05-27T12:21:21;28.50;35.10
6841;DHT22;3458;53.678;14.080;2023-05-27T12:23:47;28.60;33.90
6841;DHT22;3458;53.678;14.080;2023-05-27T12:26:13;28.70;33.40
6841;DHT22;3458;53.678;14.080;2023-05-27T12:28:40;28.80;32.80
6841;DHT22;3458;53.678;14.080;2023-05-27T12:31:06;28.90;32.00
6841;DHT22;3458;53.678;14.080;2023-05-27T12:33:31;29.20;31.40
6841;DHT22;3458;53.678;14.080;2023-05-27T12:35:57;29.40;29.80
6841;DHT22;3458;53.678;14.080;2023-05-27T12:38:23;29.50;30.00
6841;DHT22;3458;53.678;14.080;2023-05-27T12:40:50;29.80;29.20
6841;DHT22;3458;53.678;14.080;2023-05-27T12:43:17;29.80;29.10
6841;DHT22;3458;53.678;14.080;2023-05-27T12:45:43;30.00;29.70
6841;DHT22;3458;53.678;14.080;2023-05-27T12:48:10;29.70;29.90
6841;DHT22;3458;53.678;14.080;2023-05-27T12:50:36;29.70;30.10
6841;DHT22;3458;53.678;14.080;2023-05-27T12:53:02;29.60;29.40
6841;DHT22;3458;53.678;14.080;2023-05-27T12:55:28;29.50;29.30
6841;DHT22;3458;53.678;14.080;2023-05-27T12:57:54;29.30;28.80
6841;DHT22;3458;53.678;14.080;2023-05-27T13:00:20;29.10;29.10
6841;DHT22;3458;53.678;14.080;2023-05-27T13:02:46;28.90;29.10
6841;DHT22;3458;53.678;14.080;2023-05-27T13:05:13;28.80;28.90
6841;DHT22;3458;53.678;14.080;2023-05-27T13:07:38;28.60;28.50
6841;DHT22;3458;53.678;14.080;2023-05-27T13:10:12;28.10;28.90
6841;DHT22;3458;53.678;14.080;2023-05-27T13:12:43;28.10;29.60
6841;DHT22;3458;53.678;14.080;2023-05-27T13:15:10;28.30;29.40
6841;DHT22;3458;53.678;14.080;2023-05-27T13:17:36;28.60;29.50
6841;DHT22;3458;53.678;14.080;2023-05-27T13:20:02;28.80;28.90
6841;DHT22;3458;53.678;14.080;2023-05-27T13:22:28;28.70;28.40
6841;DHT22;3458;53.678;14.080;2023-05-27T13:24:54;28.60;27.90
6841;DHT22;3458;53.678;14.080;2023-05-27T13:27:19;28.50;28.10
6841;DHT22;3458;53.678;14.080;2023-05-27T13:29:45;28.60;28.00
6841;DHT22;3458;53.678;14.080;2023-05-27T13:32:10;28.70;27.90
6841;DHT22;3458;53.678;14.080;2023-05-27T13:34:36;28.60;27.90
6841;DHT22;3458;53.678;14.080;2023-05-27T13:37:02;28.40;27.80
6841;DHT22;3458;53.678;14.080;2023-05-27T13:39:28;28.50;29.30
6841;DHT22;3458;53.678;14.080;2023-05-27T13:41:53;28.80;28.00
6841;DHT22;3458;53.678;14.080;2023-05-27T13:44:19;28.90;27.80
6841;DHT22;3458;53.678;14.080;2023-05-27T13:46:44;29.20;27.90
6841;DHT22;3458;53.678;14.080;2023-05-27T13:49:10;29.40;28.30
6841;DHT22;3458;53.678;14.080;2023-05-27T13:51:43;30.00;28.90
6841;DHT22;3458;53.678;14.080;2023-05-27T13:54:09;30.00;27.00
6841;DHT22;3458;53.678;14.080;2023-05-27T13:56:34;30.10;27.90
6841;DHT22;3458;53.678;14.080;2023-05-27T13:59:00;30.20;26.90
6841;DHT22;3458;53.678;14.080;2023-05-27T14:01:28;30.20;26.40
6841;DHT22;3458;53.678;14.080;2023-05-27T14:03:54;29.70;26.30
6841;DHT22;3458;53.678;14.080;2023-05-27T14:06:20;29.60;26.80
6841;DHT22;3458;53.678;14.080;2023-05-27T14:08:45;29.70;26.90
6841;DHT22;3458;53.678;14.080;2023-05-27T14:11:11;29.60;27.10
6841;DHT22;3458;53.678;14.080;2023-05-27T14:13:36;29.80;27.70
6841;DHT22;3458;53.678;14.080;2023-05-27T14:16:02;29.90;27.30
6841;DHT22;3458;53.678;14.080;2023-05-27T14:18:27;29.50;26.50
6841;DHT22;3458;53.678;14.080;2023-05-27T14:20:53;29.30;27.50
6841;DHT22;3458;53.678;14.080;2023-05-27T14:23:19;29.70;27.70
6841;DHT22;3458;53.678;14.080;2023-05-27T14:25:44;30.10;27.10
6841;DHT22;3458;53.678;14.080;2023-05-27T14:28:10;30.20;26.70
6841;DHT22;3458;53.678;14.080;2023-05-27T14:30:36;30.20;27.00
6841;DHT22;3458;53.678;14.080;2023-05-27T14:33:08;30.60;27.20
6841;DHT22;3458;53.678;14.080;2023-05-27T14:35:35;30.80;26.20
6841;DHT22;3458;53.678;14.080;2023-05-27T14:38:02;30.90;26.00
6841;DHT22;3458;53.678;14.080;2023-05-27T14:40:28;31.00;25.90
6841;DHT22;3458;53.678;14.080;2023-05-27T14:42:53;31.10;25.40
6841;DHT22;3458;53.678;14.080;2023-05-27T14:45:19;31.00;25.00
6841;DHT22;3458;53.678;14.080;2023-05-27T14:47:46;31.10;25.00
6841;DHT22;3458;53.678;14.080;2023-05-27T14:50:12;30.90;24.70
6841;DHT22;3458;53.678;14.080;2023-05-27T14:52:37;30.90;25.70
6841;DHT22;3458;53.678;14.080;2023-05-27T14:55:04;31.10;25.90
6841;DHT22;3458;53.678;14.080;2023-05-27T14:57:29;31.60;26.00
6841;DHT22;3458;53.678;14.080;2023-05-27T14:59:59;31.70;25.50
6841;DHT22;3458;53.678;14.080;2023-05-27T15:02:25;31.80;25.10
6841;DHT22;3458;53.678;14.080;2023-05-27T15:04:51;31.70;24.90
6841;DHT22;3458;53.678;14.080;2023-05-27T15:07:16;31.70;25.30
6841;DHT22;3458;53.678;14.080;2023-05-27T15:09:44;31.70;24.50
6841;DHT22;3458;53.678;14.080;2023-05-27T15:12:10;31.80;24.70
6841;DHT22;3458;53.678;14.080;2023-05-27T15:14:35;31.70;24.10
6841;DHT22;3458;53.678;14.080;2023-05-27T15:17:01;31.50;24.00
6841;DHT22;3458;53.678;14.080;2023-05-27T15:19:27;31.50;24.10
6841;DHT22;3458;53.678;14.080;2023-05-27T15:21:53;31.50;24.60
6841;DHT22;3458;53.678;14.080;2023-05-27T15:24:18;31.40;24.40
6841;DHT22;3458;53.678;14.080;2023-05-27T15:26:44;31.60;24.20
6841;DHT22;3458;53.678;14.080;2023-05-27T15:29:09;31.60;24.20
6841;DHT22;3458;53.678;14.080;2023-05-27T15:31:35;31.50;23.60
6841;DHT22;3458;53.678;14.080;2023-05-27T15:34:00;31.40;23.90
6841;DHT22;3458;53.678;14.080;2023-05-27T15:36:26;31.40;24.20
6841;DHT22;3458;53.678;14.080;2023-05-27T15:38:51;31.50;24.20
6841;DHT22;3458;53.678;14.080;2023-05-27T15:41:17;31.50;24.30
6841;DHT22;3458;53.678;14.080;2023-05-27T15:43:43;31.70;24.90
6841;DHT22;3458;53.678;14.080;2023-05-27T15:46:08;31.50;24.60
6841;DHT22;3458;53.678;14.080;2023-05-27T15:48:34;31.50;24.60
6841;DHT22;3458;53.678;14.080;2023-05-27T15:50:59;31.30;24.80
6841;DHT22;3458;53.678;14.080;2023-05-27T15:53:25;31.20;24.80